sensor_id;sensor_type;location;lat;lon;timestamp;pressure;altitude;pressure_sealevel;temperature;humidity
11856;BME280;5987;53.140;8.904;2023-08-12T00:02:05;101721.53;;;19.37;100.00
11856;BME280;5987;53.140;8.904;2023-08-12T00:05:10;101720.00;;;19.33;100.00
11856;BME280;5987;53.140;8.904;2023-08-12T00:08:14;101709.63;;;19.28;100.00
11856;BME280;5987;53.140;8.904;2023-08-12T00:11:18;101698.69;;;19.33;100.00
11856;BME280;5987;53.140;8.904;2023-08-12T00:14:23;101698.41;;;19.37;100.00
11856;BME280;5987;53.140;8.904;2023-08-12T00:17:28;101706.38;;;19.23;100.00
11856;BME280;5987;53.140;8.904;2023-08-12T00:20:33;101700.44;;;19.18;100.00
11856;BME280;5987;53.140;8.904;2023-08-12T00:23:39;101716.00;;;19.10;100.00
11856;BME280;5987;53.140;8.904;2023-08-12T00:26:43;101709.94;;;19.08;100.00
11856;BME280;5987;53.140;8.904;2023-08-12T00:29:48;101713.13;;;18.98;100.00
11856;BME280;5987;53.140;8.904;2023-08-12T00:32:53;101716.16;;;18.92;100.00
11856;BME280;5987;53.140;8.904;2023-08-12T00:35:57;101710.22;;;18.87;100.00
11856;BME280;5987;53.140;8.904;2023-08-12T00:39:01;101712.19;;;18.83;100.00
11856;BME280;5987;53.140;8.904;2023-08-12T00:42:06;101714.84;;;18.83;100.00
11856;BME280;5987;53.140;8.904;2023-08-12T00:45:25;101720.50;;;18.77;100.00
11856;BME280;5987;53.140;8.904;2023-08-12T00:48:30;101719.47;;;18.80;100.00
11856;BME280;5987;53.140;8.904;2023-08-12T00:51:35;101716.31;;;18.73;100.00
11856;BME280;5987;53.140;8.904;2023-08-12T00:54:39;101720.78;;;18.73;100.00
11856;BME280;5987;53.140;8.904;2023-08-12T00:57:43;101713.59;;;18.75;100.00
11856;BME280;5987;53.140;8.904;2023-08-12T01:00:47;101712.81;;;18.73;100.00
11856;BME280;5987;53.140;8.904;2023-08-12T01:03:53;101715.56;;;18.71;100.00
11856;BME280;5987;53.140;8.904;2023-08-12T01:06:57;101715.56;;;18.71;100.00
11856;BME280;5987;53.140;8.904;2023-08-12T01:10:01;101714.34;;;18.77;100.00
11856;BME280;5987;53.140;8.904;2023-08-12T01:13:19;101709.97;;;18.76;100.00
11856;BME280;5987;53.140;8.904;2023-08-12T01:16:33;101722.16;;;18.80;100.00
11856;BME280;5987;53.140;8.904;2023-08-12T01:19:43;101720.00;;;18.86;100.00
11856;BME280;5987;53.140;8.904;2023-08-12T01:22:48;101721.66;;;18.89;100.00
11856;BME280;5987;53.140;8.904;2023-08-12T01:25:57;101725.31;;;18.86;100.00
11856;BME280;5987;53.140;8.904;2023-08-12T01:29:00;101734.19;;;18.87;100.00
11856;BME280;5987;53.140;8.904;2023-08-12T01:32:13;101732.47;;;18.86;100.00
11856;BME280;5987;53.140;8.904;2023-08-12T01:35:26;101725.34;;;18.71;100.00
11856;BME280;5987;53.140;8.904;2023-08-12T01:38:35;101726.78;;;18.60;100.00
11856;BME280;5987;53.140;8.904;2023-08-12T01:41:43;101725.84;;;18.61;100.00
11856;BME280;5987;53.140;8.904;2023-08-12T01:44:49;101723.97;;;18.63;100.00
11856;BME280;5987;53.140;8.904;2023-08-12T01:47:53;101725.91;;;18.76;100.00
11856;BME280;5987;53.140;8.904;2023-08-12T01:50:57;101711.88;;;18.74;100.00
11856;BME280;5987;53.140;8.904;2023-08-12T01:54:01;101715.22;;;18.61;100.00
11856;BME280;5987;53.140;8.904;2023-08-12T01:57:06;101713.84;;;18.54;100.00
11856;BME280;5987;53.140;8.904;2023-08-12T02:00:12;101713.88;;;18.38;100.00
11856;BME280;5987;53.140;8.904;2023-08-12T02:03:16;101711.28;;;18.37;100.00
11856;BME280;5987;53.140;8.904;2023-08-12T02:06:20;101715.56;;;18.39;100.00
11856;BME280;5987;53.140;8.904;2023-08-12T02:09:24;101720.66;;;18.44;100.00
11856;BME280;5987;53.140;8.904;2023-08-12T02:12:29;101732.41;;;18.40;100.00
11856;BME280;5987;53.140;8.904;2023-08-12T02:15:33;101727.47;;;18.32;100.00
11856;BME280;5987;53.140;8.904;2023-08-12T02:18:36;101735.63;;;18.29;100.00
11856;BME280;5987;53.140;8.904;2023-08-12T02:21:40;101733.31;;;18.23;100.00
11856;BME280;5987;53.140;8.904;2023-08-12T02:24:44;101723.97;;;18.31;100.00
11856;BME280;5987;53.140;8.904;2023-08-12T02:27:50;101714.09;;;18.33;100.00
11856;BME280;5987;53.140;8.904;2023-08-12T02:30:54;101712.25;;;18.36;100.00
11856;BME280;5987;53.140;8.904;2023-08-12T02:33:57;101702.53;;;18.34;100.00
11856;BME280;5987;53.140;8.904;2023-08-12T02:37:01;101697.31;;;18.33;100.00
11856;BME280;5987;53.140;8.904;2023-08-12T02:40:06;101695.50;;;18.33;100.00
11856;BME280;5987;53.140;8.904;2023-08-12T02:43:12;101688.63;;;18.29;100.00
11856;BME280;5987;53.140;8.904;2023-08-12T02:46:16;101685.22;;;18.27;100.00
11856;BME280;5987;53.140;8.904;2023-08-12T02:49:21;101683.22;;;18.31;100.00
11856;BME280;5987;53.140;8.904;2023-08-12T02:52:25;101683.06;;;18.34;100.00
11856;BME280;5987;53.140;8.904;2023-08-12T02:55:29;101687.50;;;18.33;100.00
11856;BME280;5987;53.140;8.904;2023-08-12T02:58:35;101688.53;;;18.31;100.00
11856;BME280;5987;53.140;8.904;2023-08-12T03:01:41;101677.25;;;18.27;100.00
11856;BME280;5987;53.140;8.904;2023-08-12T03:04:45;101677.41;;;18.24;100.00
11856;BME280;5987;53.140;8.904;2023-08-12T03:07:48;101675.16;;;18.16;100.00
11856;BME280;5987;53.140;8.904;2023-08-12T03:10:59;101674.75;;;18.24;100.00
11856;BME280;5987;53.140;8.904;2023-08-12T03:14:04;101672.69;;;18.29;100.00
11856;BME280;5987;53.140;8.904;2023-08-12T03:17:08;101680.56;;;18.31;100.00
11856;BME280;5987;53.140;8.904;2023-08-12T03:20:13;101670.09;;;18.28;100.00
11856;BME280;5987;53.140;8.904;2023-08-12T03:23:17;101678.66;;;18.17;100.00
11856;BME280;5987;53.140;8.904;2023-08-12T03:26:20;101667.19;;;18.16;100.00
11856;BME280;5987;53.140;8.904;2023-08-12T03:29:25;101675.25;;;18.15;100.00
11856;BME280;5987;53.140;8.904;2023-08-12T03:32:29;101674.84;;;18.23;100.00
11856;BME280;5987;53.140;8.904;2023-08-12T03:35:33;101674.06;;;18.21;100.00
11856;BME280;5987;53.140;8.904;2023-08-12T03:38:37;101669.44;;;18.24;100.00
11856;BME280;5987;53.140;8.904;2023-08-12T03:41:40;101670.81;;;18.31;100.00
11856;BME280;5987;53.140;8.904;2023-08-12T03:44:45;101660.00;;;18.34;100.00
11856;BME280;5987;53.140;8.904;2023-08-12T03:47:49;101654.59;;;18.36;100.00
11856;BME280;5987;53.140;8.904;2023-08-12T03:50:53;101663.69;;;18.32;100.00
11856;BME280;5987;53.140;8.904;2023-08-12T03:53:57;101662.84;;;18.31;100.00
11856;BME280;5987;53.140;8.904;2023-08-12T03:57:01;101667.19;;;18.32;100.00
11856;BME280;5987;53.140;8.904;2023-08-12T04:00:08;101665.31;;;18.34;100.00
11856;BME280;5987;53.140;8.904;2023-08-12T04:03:12;101670.63;;;18.34;100.00
11856;BME280;5987;53.140;8.904;2023-08-12T04:06:17;101678.00;;;18.29;100.00
11856;BME280;5987;53.140;8.904;2023-08-12T04:09:20;101679.53;;;18.33;100.00
11856;BME280;5987;53.140;8.904;2023-08-12T04:12:24;101679.09;;;18.25;100.00
11856;BME280;5987;53.140;8.904;2023-08-12T04:15:29;101677.31;;;18.26;100.00
11856;BME280;5987;53.140;8.904;2023-08-12T04:18:33;101682.47;;;18.29;100.00
11856;BME280;5987;53.140;8.904;2023-08-12T04:21:37;101688.91;;;18.25;100.00
11856;BME280;5987;53.140;8.904;2023-08-12T04:24:40;101692.06;;;18.31;100.00
11856;BME280;5987;53.140;8.904;2023-08-12T04:27:44;101688.81;;;18.26;100.00
11856;BME280;5987;53.140;8.904;2023-08-12T04:30:51;101697.56;;;18.28;100.00
11856;BME280;5987;53.140;8.904;2023-08-12T04:33:55;101695.84;;;18.27;100.00
11856;BME280;5987;53.140;8.904;2023-08-12T04:36:59;101695.22;;;18.22;100.00
11856;BME280;5987;53.140;8.904;2023-08-12T04:40:04;101691.72;;;18.22;100.00
11856;BME280;5987;53.140;8.904;2023-08-12T04:43:10;101696.09;;;18.23;100.00
11856;BME280;5987;53.140;8.904;2023-08-12T04:46:17;101695.84;;;18.27;100.00
11856;BME280;5987;53.140;8.904;2023-08-12T04:49:21;101685.13;;;18.29;100.00
11856;BME280;5987;53.140;8.904;2023-08-12T04:52:25;101690.53;;;18.27;100.00
11856;BME280;5987;53.140;8.904;2023-08-12T04:55:29;101693.28;;;18.26;100.00
11856;BME280;5987;53.140;8.904;2023-08-12T04:58:33;101694.13;;;18.26;100.00
11856;BME280;5987;53.140;8.904;2023-08-12T05:01:38;101703.22;;;18.22;100.00
11856;BME280;5987;53.140;8.904;2023-08-12T05:05:03;101700.56;;;18.22;100.00
11856;BME280;5987;53.140;8.904;2023-08-12T05:08:07;101695.16;;;18.24;100.00
11856;BME280;5987;53.140;8.904;2023-08-12T05:11:11;101704.13;;;18.21;100.00
11856;BME280;5987;53.140;8.904;2023-08-12T05:14:14;101706.75;;;18.23;100.00
11856;BME280;5987;53.140;8.904;2023-08-12T05:17:19;101712.28;;;18.18;100.00
11856;BME280;5987;53.140;8.904;2023-08-12T05:20:23;101713.84;;;18.22;100.00
11856;BME280;5987;53.140;8.904;2023-08-12T05:23:27;101713.66;;;18.25;100.00
11856;BME280;5987;53.140;8.904;2023-08-12T05:26:33;101705.59;;;18.27;100.00
11856;BME280;5987;53.140;8.904;2023-08-12T05:29:36;101709.22;;;18.26;100.00
11856;BME280;5987;53.140;8.904;2023-08-12T05:32:42;101706.81;;;18.21;100.00
11856;BME280;5987;53.140;8.904;2023-08-12T05:35:47;101711.78;;;18.27;100.00
11856;BME280;5987;53.140;8.904;2023-08-12T05:38:51;101707.84;;;18.34;100.00
11856;BME280;5987;53.140;8.904;2023-08-12T05:41:55;101700.63;;;18.37;100.00
11856;BME280;5987;53.140;8.904;2023-08-12T05:44:59;101697.97;;;18.37;100.00
11856;BME280;5987;53.140;8.904;2023-08-12T05:48:05;101697.81;;;18.40;100.00
11856;BME280;5987;53.140;8.904;2023-08-12T05:51:08;101698.75;;;18.39;100.00
11856;BME280;5987;53.140;8.904;2023-08-12T05:54:12;101699.38;;;18.44;100.00
11856;BME280;5987;53.140;8.904;2023-08-12T05:57:17;101692.84;;;18.49;100.00
11856;BME280;5987;53.140;8.904;2023-08-12T06:00:21;101686.31;;;18.55;100.00
11856;BME280;5987;53.140;8.904;2023-08-12T06:03:27;101688.75;;;18.44;100.00
11856;BME280;5987;53.140;8.904;2023-08-12T06:06:30;101689.41;;;18.47;100.00
11856;BME280;5987;53.140;8.904;2023-08-12T06:09:34;101682.63;;;18.42;100.00
11856;BME280;5987;53.140;8.904;2023-08-12T06:12:38;101671.63;;;18.48;100.00
11856;BME280;5987;53.140;8.904;2023-08-12T06:15:56;101672.41;;;18.50;100.00
11856;BME280;5987;53.140;8.904;2023-08-12T06:19:02;101674.47;;;18.45;100.00
11856;BME280;5987;53.140;8.904;2023-08-12T06:22:06;101677.28;;;18.58;100.00
11856;BME280;5987;53.140;8.904;2023-08-12T06:25:09;101677.13;;;18.61;100.00
11856;BME280;5987;53.140;8.904;2023-08-12T06:28:13;101670.94;;;18.60;100.00
11856;BME280;5987;53.140;8.904;2023-08-12T06:31:17;101671.13;;;18.57;100.00
11856;BME280;5987;53.140;8.904;2023-08-12T06:34:22;101667.44;;;18.60;100.00
11856;BME280;5987;53.140;8.904;2023-08-12T06:37:25;101672.28;;;18.67;100.00
11856;BME280;5987;53.140;8.904;2023-08-12T06:40:29;101677.28;;;18.74;100.00
11856;BME280;5987;53.140;8.904;2023-08-12T06:43:34;101675.38;;;18.76;100.00
11856;BME280;5987;53.140;8.904;2023-08-12T06:46:38;101672.03;;;18.88;100.00
11856;BME280;5987;53.140;8.904;2023-08-12T06:49:43;101677.09;;;18.93;100.00
11856;BME280;5987;53.140;8.904;2023-08-12T06:52:47;101674.41;;;18.93;100.00
11856;BME280;5987;53.140;8.904;2023-08-12T06:55:50;101674.16;;;18.97;100.00
11856;BME280;5987;53.140;8.904;2023-08-12T06:58:54;101671.50;;;18.97;100.00
11856;BME280;5987;53.140;8.904;2023-08-12T07:01:58;101669.50;;;19.01;100.00
11856;BME280;5987;53.140;8.904;2023-08-12T07:05:04;101671.19;;;18.88;100.00
11856;BME280;5987;53.140;8.904;2023-08-12T07:08:08;101672.78;;;18.90;100.00
11856;BME280;5987;53.140;8.904;2023-08-12T07:11:12;101678.72;;;18.95;100.00
11856;BME280;5987;53.140;8.904;2023-08-12T07:14:16;101681.38;;;18.95;100.00
11856;BME280;5987;53.140;8.904;2023-08-12T07:17:19;101684.25;;;19.07;100.00
11856;BME280;5987;53.140;8.904;2023-08-12T07:20:25;101674.50;;;18.91;100.00
11856;BME280;5987;53.140;8.904;2023-08-12T07:23:28;101663.66;;;19.10;100.00
11856;BME280;5987;53.140;8.904;2023-08-12T07:26:32;101656.09;;;19.02;100.00
11856;BME280;5987;53.140;8.904;2023-08-12T07:29:36;101650.97;;;18.99;100.00
11856;BME280;5987;53.140;8.904;2023-08-12T07:32:40;101656.09;;;19.02;100.00
11856;BME280;5987;53.140;8.904;2023-08-12T07:35:45;101648.25;;;19.15;100.00
11856;BME280;5987;53.140;8.904;2023-08-12T07:38:49;101651.06;;;19.43;100.00
11856;BME280;5987;53.140;8.904;2023-08-12T07:41:53;101647.34;;;19.45;100.00
11856;BME280;5987;53.140;8.904;2023-08-12T07:44:56;101641.97;;;19.31;100.00
11856;BME280;5987;53.140;8.904;2023-08-12T07:48:00;101638.88;;;19.39;100.00
11856;BME280;5987;53.140;8.904;2023-08-12T07:51:05;101623.91;;;19.22;100.00
11856;BME280;5987;53.140;8.904;2023-08-12T07:54:09;101620.13;;;19.26;100.00
11856;BME280;5987;53.140;8.904;2023-08-12T07:57:13;101617.72;;;19.21;100.00
11856;BME280;5987;53.140;8.904;2023-08-12T08:00:17;101618.50;;;19.37;100.00
11856;BME280;5987;53.140;8.904;2023-08-12T08:03:21;101617.16;;;19.45;100.00
11856;BME280;5987;53.140;8.904;2023-08-12T08:06:27;101618.78;;;19.62;100.00
11856;BME280;5987;53.140;8.904;2023-08-12T08:09:31;101611.28;;;19.68;100.00
11856;BME280;5987;53.140;8.904;2023-08-12T08:12:36;101613.16;;;19.95;100.00
11856;BME280;5987;53.140;8.904;2023-08-12T08:15:40;101606.41;;;19.90;100.00
11856;BME280;5987;53.140;8.904;2023-08-12T08:18:43;101609.91;;;20.04;100.00
11856;BME280;5987;53.140;8.904;2023-08-12T08:21:49;101608.59;;;19.83;100.00
11856;BME280;5987;53.140;8.904;2023-08-12T08:24:52;101606.72;;;19.85;100.00
11856;BME280;5987;53.140;8.904;2023-08-12T08:27:56;101608.97;;;20.05;100.00
11856;BME280;5987;53.140;8.904;2023-08-12T08:31:00;101601.88;;;19.92;100.00
11856;BME280;5987;53.140;8.904;2023-08-12T08:34:04;101607.09;;;19.93;100.00
11856;BME280;5987;53.140;8.904;2023-08-12T08:37:09;101606.63;;;19.86;100.00
11856;BME280;5987;53.140;8.904;2023-08-12T08:40:13;101602.91;;;19.89;100.00
11856;BME280;5987;53.140;8.904;2023-08-12T08:43:20;101604.31;;;19.95;100.00
11856;BME280;5987;53.140;8.904;2023-08-12T08:46:25;101603.81;;;20.02;100.00
11856;BME280;5987;53.140;8.904;2023-08-12T08:49:30;101606.13;;;19.94;100.00
11856;BME280;5987;53.140;8.904;2023-08-12T08:52:37;101601.38;;;19.85;100.00
11856;BME280;5987;53.140;8.904;2023-08-12T08:55:41;101608.53;;;19.84;100.00
11856;BME280;5987;53.140;8.904;2023-08-12T08:58:46;101598.63;;;19.86;100.00
11856;BME280;5987;53.140;8.904;2023-08-12T09:01:50;101603.28;;;19.97;100.00
11856;BME280;5987;53.140;8.904;2023-08-12T09:04:55;101598.69;;;19.99;100.00
11856;BME280;5987;53.140;8.904;2023-08-12T09:08:02;101598.22;;;19.93;100.00
11856;BME280;5987;53.140;8.904;2023-08-12T09:11:09;101602.97;;;19.73;100.00
11856;BME280;5987;53.140;8.904;2023-08-12T09:14:13;101611.75;;;19.75;100.00
11856;BME280;5987;53.140;8.904;2023-08-12T09:17:16;101600.03;;;19.78;100.00
11856;BME280;5987;53.140;8.904;2023-08-12T09:20:21;101603.13;;;19.86;100.00
11856;BME280;5987;53.140;8.904;2023-08-12T09:23:28;101593.75;;;19.93;100.00
11856;BME280;5987;53.140;8.904;2023-08-12T09:26:32;101596.69;;;19.88;100.00
11856;BME280;5987;53.140;8.904;2023-08-12T09:29:36;101602.34;;;19.84;100.00
11856;BME280;5987;53.140;8.904;2023-08-12T09:32:40;101598.63;;;19.72;100.00
11856;BME280;5987;53.140;8.904;2023-08-12T09:35:43;101605.94;;;19.68;100.00
11856;BME280;5987;53.140;8.904;2023-08-12T09:38:48;101601.00;;;19.62;100.00
11856;BME280;5987;53.140;8.904;2023-08-12T09:41:52;101594.63;;;19.65;100.00
11856;BME280;5987;53.140;8.904;2023-08-12T09:44:57;101596.81;;;19.73;100.00
11856;BME280;5987;53.140;8.904;2023-08-12T09:48:01;101598.44;;;19.61;100.00
11856;BME280;5987;53.140;8.904;2023-08-12T09:51:05;101590.25;;;19.64;100.00
11856;BME280;5987;53.140;8.904;2023-08-12T09:54:11;101592.25;;;19.60;100.00
11856;BME280;5987;53.140;8.904;2023-08-12T09:57:19;101579.09;;;19.71;100.00
11856;BME280;5987;53.140;8.904;2023-08-12T10:00:25;101566.91;;;19.67;100.00
11856;BME280;5987;53.140;8.904;2023-08-12T10:03:30;101558.47;;;19.61;100.00
11856;BME280;5987;53.140;8.904;2023-08-12T10:06:35;101570.25;;;19.71;100.00
11856;BME280;5987;53.140;8.904;2023-08-12T10:09:43;101567.38;;;19.74;100.00
11856;BME280;5987;53.140;8.904;2023-08-12T10:12:48;101572.25;;;19.67;100.00
11856;BME280;5987;53.140;8.904;2023-08-12T10:15:52;101560.94;;;19.64;100.00
11856;BME280;5987;53.140;8.904;2023-08-12T10:18:58;101559.53;;;19.58;100.00
11856;BME280;5987;53.140;8.904;2023-08-12T10:22:03;101555.81;;;19.61;100.00
11856;BME280;5987;53.140;8.904;2023-08-12T10:25:09;101567.53;;;19.58;100.00
11856;BME280;5987;53.140;8.904;2023-08-12T10:28:13;101563.34;;;19.54;100.00
11856;BME280;5987;53.140;8.904;2023-08-12T10:31:19;101565.81;;;19.57;100.00
11856;BME280;5987;53.140;8.904;2023-08-12T10:34:25;101569.03;;;19.62;100.00
11856;BME280;5987;53.140;8.904;2023-08-12T10:37:33;101581.31;;;19.50;100.00
11856;BME280;5987;53.140;8.904;2023-08-12T10:40:38;101573.81;;;19.43;100.00
11856;BME280;5987;53.140;8.904;2023-08-12T10:43:53;101575.13;;;19.50;100.00
11856;BME280;5987;53.140;8.904;2023-08-12T10:46:58;101570.00;;;19.47;100.00
11856;BME280;5987;53.140;8.904;2023-08-12T10:50:02;101562.47;;;19.39;100.00
11856;BME280;5987;53.140;8.904;2023-08-12T10:53:23;101543.75;;;19.41;100.00
11856;BME280;5987;53.140;8.904;2023-08-12T10:56:29;101554.50;;;19.39;100.00
11856;BME280;5987;53.140;8.904;2023-08-12T10:59:56;101552.41;;;19.44;100.00
11856;BME280;5987;53.140;8.904;2023-08-12T11:03:05;101544.91;;;19.51;100.00
11856;BME280;5987;53.140;8.904;2023-08-12T11:06:10;101538.22;;;19.58;100.00
11856;BME280;5987;53.140;8.904;2023-08-12T11:09:14;101543.16;;;19.64;100.00
11856;BME280;5987;53.140;8.904;2023-08-12T11:12:29;101541.03;;;19.84;100.00
11856;BME280;5987;53.140;8.904;2023-08-12T11:15:34;101546.94;;;19.89;100.00
11856;BME280;5987;53.140;8.904;2023-08-12T11:18:40;101554.72;;;19.92;100.00
11856;BME280;5987;53.140;8.904;2023-08-12T11:21:45;101573.22;;;19.81;100.00
11856;BME280;5987;53.140;8.904;2023-08-12T11:24:51;101578.44;;;19.68;100.00
11856;BME280;5987;53.140;8.904;2023-08-12T11:27:57;101572.25;;;19.67;100.00
11856;BME280;5987;53.140;8.904;2023-08-12T11:31:01;101575.47;;;19.73;100.00
11856;BME280;5987;53.140;8.904;2023-08-12T11:34:05;101569.69;;;19.66;100.00
11856;BME280;5987;53.140;8.904;2023-08-12T11:37:09;101566.19;;;19.51;100.00
11856;BME280;5987;53.140;8.904;2023-08-12T11:40:16;101558.59;;;19.59;100.00
11856;BME280;5987;53.140;8.904;2023-08-12T11:43:22;101554.78;;;19.49;100.00
11856;BME280;5987;53.140;8.904;2023-08-12T11:46:26;101546.00;;;19.61;100.00
11856;BME280;5987;53.140;8.904;2023-08-12T11:49:30;101541.63;;;19.60;100.00
11856;BME280;5987;53.140;8.904;2023-08-12T11:52:35;101538.75;;;19.63;100.00
11856;BME280;5987;53.140;8.904;2023-08-12T11:55:39;101530.16;;;20.01;100.00
11856;BME280;5987;53.140;8.904;2023-08-12T11:58:49;101533.16;;;20.50;100.00
11856;BME280;5987;53.140;8.904;2023-08-12T12:01:55;101533.63;;;20.69;100.00
11856;BME280;5987;53.140;8.904;2023-08-12T12:04:59;101529.16;;;20.70;100.00
11856;BME280;5987;53.140;8.904;2023-08-12T12:08:05;101506.38;;;20.64;100.00
11856;BME280;5987;53.140;8.904;2023-08-12T12:11:11;101502.19;;;20.34;100.00
11856;BME280;5987;53.140;8.904;2023-08-12T12:14:16;101501.44;;;20.32;100.00
11856;BME280;5987;53.140;8.904;2023-08-12T12:17:21;101498.13;;;20.29;100.00
11856;BME280;5987;53.140;8.904;2023-08-12T12:20:25;101482.44;;;20.24;100.00
11856;BME280;5987;53.140;8.904;2023-08-12T12:23:32;101478.84;;;20.51;100.00
11856;BME280;5987;53.140;8.904;2023-08-12T12:26:37;101468.88;;;20.27;100.00
11856;BME280;5987;53.140;8.904;2023-08-12T12:29:42;101459.50;;;20.21;100.00
11856;BME280;5987;53.140;8.904;2023-08-12T12:32:46;101455.44;;;20.29;100.00
11856;BME280;5987;53.140;8.904;2023-08-12T12:35:49;101449.28;;;20.28;100.00
11856;BME280;5987;53.140;8.904;2023-08-12T12:39:02;101448.53;;;20.65;100.00
11856;BME280;5987;53.140;8.904;2023-08-12T12:42:06;101443.84;;;20.68;100.00
11856;BME280;5987;53.140;8.904;2023-08-12T12:45:11;101435.53;;;20.86;100.00
11856;BME280;5987;53.140;8.904;2023-08-12T12:48:15;101422.16;;;20.60;100.00
11856;BME280;5987;53.140;8.904;2023-08-12T12:51:19;101414.50;;;20.43;100.00
11856;BME280;5987;53.140;8.904;2023-08-12T12:54:23;101429.00;;;20.38;100.00
11856;BME280;5987;53.140;8.904;2023-08-12T12:57:27;101422.59;;;20.54;100.00
11856;BME280;5987;53.140;8.904;2023-08-12T13:00:32;101411.69;;;20.83;100.00
11856;BME280;5987;53.140;8.904;2023-08-12T13:03:36;101405.31;;;20.85;100.00
11856;BME280;5987;53.140;8.904;2023-08-12T13:06:40;101383.19;;;20.96;100.00
11856;BME280;5987;53.140;8.904;2023-08-12T13:09:44;101386.88;;;21.06;100.00
11856;BME280;5987;53.140;8.904;2023-08-12T13:12:48;101382.00;;;21.00;100.00
11856;BME280;5987;53.140;8.904;2023-08-12T13:15:53;101378.81;;;21.19;100.00
11856;BME280;5987;53.140;8.904;2023-08-12T13:18:57;101371.06;;;21.40;100.00
11856;BME280;5987;53.140;8.904;2023-08-12T13:22:01;101361.63;;;21.48;100.00
11856;BME280;5987;53.140;8.904;2023-08-12T13:25:08;101347.53;;;21.46;100.00
11856;BME280;5987;53.140;8.904;2023-08-12T13:28:13;101348.72;;;21.17;100.00
11856;BME280;5987;53.140;8.904;2023-08-12T13:31:18;101355.06;;;21.03;100.00
11856;BME280;5987;53.140;8.904;2023-08-12T13:34:22;101359.16;;;20.96;100.00
11856;BME280;5987;53.140;8.904;2023-08-12T13:37:25;101358.13;;;20.86;100.00
11856;BME280;5987;53.140;8.904;2023-08-12T13:40:29;101369.44;;;20.77;100.00
11856;BME280;5987;53.140;8.904;2023-08-12T13:43:33;101391.03;;;20.73;100.00
11856;BME280;5987;53.140;8.904;2023-08-12T13:46:38;101401.47;;;20.51;100.00
11856;BME280;5987;53.140;8.904;2023-08-12T13:49:45;101396.97;;;20.64;100.00
11856;BME280;5987;53.140;8.904;2023-08-12T13:52:48;101370.81;;;20.82;100.00
11856;BME280;5987;53.140;8.904;2023-08-12T13:55:52;101392.69;;;21.00;100.00
11856;BME280;5987;53.140;8.904;2023-08-12T13:58:56;101380.75;;;20.93;100.00
11856;BME280;5987;53.140;8.904;2023-08-12T14:02:02;101372.66;;;20.82;100.00
11856;BME280;5987;53.140;8.904;2023-08-12T14:05:07;101374.53;;;21.05;100.00
11856;BME280;5987;53.140;8.904;2023-08-12T14:08:11;101363.44;;;21.23;100.00
11856;BME280;5987;53.140;8.904;2023-08-12T14:11:14;101361.47;;;21.62;100.00
11856;BME280;5987;53.140;8.904;2023-08-12T14:14:18;101338.63;;;21.58;100.00
11856;BME280;5987;53.140;8.904;2023-08-12T14:17:23;101342.53;;;21.41;100.00
11856;BME280;5987;53.140;8.904;2023-08-12T14:20:28;101335.91;;;21.22;100.00
11856;BME280;5987;53.140;8.904;2023-08-12T14:23:31;101327.34;;;21.17;100.00
11856;BME280;5987;53.140;8.904;2023-08-12T14:26:36;101321.00;;;21.07;100.00
11856;BME280;5987;53.140;8.904;2023-08-12T14:29:39;101316.78;;;20.92;100.00
11856;BME280;5987;53.140;8.904;2023-08-12T14:32:45;101346.06;;;20.67;100.00
11856;BME280;5987;53.140;8.904;2023-08-12T14:35:52;101357.81;;;21.15;100.00
11856;BME280;5987;53.140;8.904;2023-08-12T14:38:56;101336.56;;;21.37;100.00
11856;BME280;5987;53.140;8.904;2023-08-12T14:42:00;101347.53;;;20.97;100.00
11856;BME280;5987;53.140;8.904;2023-08-12T14:45:26;101344.78;;;20.60;100.00
11856;BME280;5987;53.140;8.904;2023-08-12T14:48:31;101354.75;;;20.45;100.00
11856;BME280;5987;53.140;8.904;2023-08-12T14:51:35;101360.47;;;20.52;100.00
11856;BME280;5987;53.140;8.904;2023-08-12T14:54:39;101374.81;;;20.38;100.00
11856;BME280;5987;53.140;8.904;2023-08-12T14:57:43;101374.16;;;20.34;100.00
11856;BME280;5987;53.140;8.904;2023-08-12T15:00:47;101373.31;;;20.47;100.00
11856;BME280;5987;53.140;8.904;2023-08-12T15:03:52;101373.41;;;20.58;100.00
11856;BME280;5987;53.140;8.904;2023-08-12T15:06:57;101375.44;;;20.80;100.00
11856;BME280;5987;53.140;8.904;2023-08-12T15:10:01;101361.97;;;20.82;100.00
11856;BME280;5987;53.140;8.904;2023-08-12T15:13:05;101363.47;;;20.86;100.00
11856;BME280;5987;53.140;8.904;2023-08-12T15:16:09;101365.88;;;21.02;100.00
11856;BME280;5987;53.140;8.904;2023-08-12T15:19:15;101342.97;;;21.11;100.00
11856;BME280;5987;53.140;8.904;2023-08-12T15:22:18;101342.13;;;21.34;100.00
11856;BME280;5987;53.140;8.904;2023-08-12T15:25:22;101347.00;;;21.40;100.00
11856;BME280;5987;53.140;8.904;2023-08-12T15:28:26;101352.34;;;21.40;100.00
11856;BME280;5987;53.140;8.904;2023-08-12T15:31:30;101349.84;;;21.50;100.00
11856;BME280;5987;53.140;8.904;2023-08-12T15:34:35;101347.47;;;21.34;100.00
11856;BME280;5987;53.140;8.904;2023-08-12T15:37:39;101333.88;;;21.37;100.00
11856;BME280;5987;53.140;8.904;2023-08-12T15:40:43;101329.47;;;21.49;100.00
11856;BME280;5987;53.140;8.904;2023-08-12T15:43:46;101327.31;;;21.54;100.00
11856;BME280;5987;53.140;8.904;2023-08-12T15:46:50;101328.66;;;21.60;100.00
11856;BME280;5987;53.140;8.904;2023-08-12T15:49:55;101331.88;;;21.76;100.00
11856;BME280;5987;53.140;8.904;2023-08-12T15:52:59;101330.78;;;21.44;100.00
11856;BME280;5987;53.140;8.904;2023-08-12T15:56:03;101334.91;;;21.72;100.00
11856;BME280;5987;53.140;8.904;2023-08-12T15:59:07;101331.13;;;21.63;100.00
11856;BME280;5987;53.140;8.904;2023-08-12T16:02:11;101336.13;;;21.79;100.00
11856;BME280;5987;53.140;8.904;2023-08-12T16:05:16;101340.00;;;21.75;100.00
11856;BME280;5987;53.140;8.904;2023-08-12T16:08:20;101346.44;;;21.72;100.00